Terminal Aerodrome Forecast
Issued by NWS Louisville, KY

Home | Current Version | Previous Version | Text Only | Print | Product List | Glossary On
Versions: 1 2 3 4 5 6 7 8 9 10 11 12 13 14 15 16
180
FTUS43 KLMK 201729
TAFBWG
TAF
KBWG 201729Z 2018/2118 20011KT P6SM BKN050
     FM202300 21006KT P6SM BKN045
     FM210500 24004KT P6SM OVC025
     FM210900 VRB03KT 4SM BR OVC011
     FM211500 36005KT P6SM OVC016=

USA.gov is the U.S. government's official web portal to all federal, state and local government web resources and services.